Oshoro Maru — JDVA — position and weather

sailwx.info

Track history (hours):
 
Tides and Currents Weather Stations Pressure Air Temp Water Temp Dewpoint Dewpoint Depression Visibility Wind Speed Wind Dir Waves Ship Positions

Oceanographic research ship Oshoro Maru (Japan)

Detailed information on ship capabilities available from University of Delaware's Ocean Information Center.

Last reported at 2018-May-19 01:32 UTC. Time now 2018-May-20 15:31 UTC.
Position N 33°43' E 135°10'.

Length 73 m; beam 13 m; draft 5 m.

Type: Other ship. MMSI: 431477000.

Date/timePositionNaut miles runAvg speedWind from/ knotsBaromVisibWave heightAir tempDewpointWater temp
2018-May-19 01:32N 33°43' E 135°10'211.9
2018-May-19 01:24N 33°44' E 135°09'511.6
2018-May-19 01:00N 33°47' E 135°05'611.8
2018-May-19 00:30N 33°52' E 135°01'611.2
2018-May-19 00:00N 33°57' E 134°59'611.7
2018-May-18 23:30N 34°03' E 134°59'612.0
2018-May-18 23:00N 34°09' E 134°59'612.7
2018-May-18 22:30N 34°16' E 134°59'611.0
2018-May-18 22:00N 34°21' E 134°59'611.7
2018-May-18 21:30N 34°27' E 135°01'611.9
2018-May-18 21:00N 34°33' E 135°02'510.1
2018-May-18 20:30N 34°37' E 134°59'713.4
2018-May-18 20:00N 34°34' E 134°52'612.4
2018-May-18 19:30N 34°32' E 134°45'611.9
2018-May-18 19:00N 34°29' E 134°38'611.9
2018-May-18 18:30N 34°27' E 134°32'612.4
2018-May-18 18:00N 34°25' E 134°25'  
2018-May-15 08:19N 33°33' E 129°34'411.9
2018-May-15 07:59N 33°33' E 129°38'5 7.3
2018-May-15 07:21N 33°34' E 129°44'0 0.3
2018-May-15 07:00N 33°34' E 129°44'0 0.3
2018-May-15 06:26N 33°34' E 129°44'3 5.7
2018-May-15 05:55N 33°37' E 129°45'0 0.2
2018-May-15 05:29N 33°37' E 129°45'0 0.1
2018-May-15 04:53N 33°37' E 129°45'1 3.0
2018-May-15 04:29N 33°37' E 129°47'3 5.5
2018-May-15 04:00N 33°38' E 129°50'3 5.2
2018-May-15 03:31N 33°37' E 129°53'0 0.1
2018-May-15 03:00N 33°37' E 129°53'0 0.2
2018-May-15 02:30N 33°37' E 129°53'0 0.0
2018-May-15 02:00N 33°37' E 129°53'0 0.1
2018-May-15 01:29N 33°37' E 129°53'0 0.2
2018-May-15 01:00N 33°37' E 129°53'4 5.2
2018-May-15 00:15N 33°36' E 129°57'2 6.0
2018-May-14 23:59N 33°35' E 129°59'0 0.2
2018-May-14 23:30N 33°35' E 129°59'0 0.3
2018-May-14 23:00N 33°35' E 129°59'0 0.8
2018-May-14 22:30N 33°36' E 129°59'2 3.7
2018-May-14 21:59N 33°37' E 129°60'1 2.0
2018-May-14 21:30N 33°38' E 129°60'1 1.1
2018-May-14 21:01N 33°39' E 129°60'1 2.4
2018-May-14 20:30N 33°40' E 130°00'2 3.3
2018-May-14 20:01N 33°42' E 130°01'2 3.6
2018-May-14 19:30N 33°43' E 130°03'2 4.0
2018-May-14 19:00N 33°44' E 130°04'2 3.8
2018-May-14 18:30N 33°45' E 130°06'2 3.7
2018-May-14 18:01N 33°47' E 130°08'2 3.7
2018-May-14 17:31N 33°48' E 130°09'2 4.0
2018-May-14 17:01N 33°49' E 130°11'2 3.9
2018-May-14 16:31N 33°50' E 130°13'2 3.7
2018-May-14 16:00N 33°51' E 130°15'2 3.8
2018-May-14 15:30N 33°53' E 130°17'2 3.9
2018-May-14 15:00N 33°54' E 130°19'2 3.6
2018-May-14 14:30N 33°55' E 130°20'2 3.5
2018-May-14 14:00N 33°56' E 130°22'2 3.8
2018-May-14 13:30N 33°57' E 130°24'2 4.1
2018-May-14 13:00N 33°57' E 130°26'2 4.5
2018-May-14 12:30N 33°58' E 130°29'2 4.8
2018-May-14 12:00N 33°59' E 130°32'2 5.0
2018-May-14 11:30N 33°60' E 130°34'3 5.1
2018-May-14 11:00N 34°01' E 130°37'3 5.2
2018-May-14 10:30N 34°02' E 130°40'3 5.1
2018-May-14 10:00N 34°03' E 130°43'3 6.2
2018-May-14 09:30N 34°03' E 130°47'510.5
2018-May-14 09:00N 34°00' E 130°52'5 9.4
2018-May-14 08:30N 33°56' E 130°53'2 4.5
2018-May-14 08:00N 33°57' E 130°56'0 0.3
2018-May-14 07:30N 33°57' E 130°56'0 0.0
2018-May-14 07:00N 33°57' E 130°56'0 0.0
2018-May-14 06:30N 33°57' E 130°56'0 0.0
2018-May-14 06:00N 33°57' E 130°56'0 0.0
2018-May-14 05:26N 33°57' E 130°56'0 0.0
2018-May-14 04:58N 33°57' E 130°56'0 0.0
2018-May-14 04:28N 33°57' E 130°56'0 0.0
2018-May-14 03:58N 33°57' E 130°56'0 0.0
2018-May-14 03:28N 33°57' E 130°56'0 0.0
2018-May-14 02:58N 33°57' E 130°56'0 0.0
2018-May-14 02:22N 33°57' E 130°56'0 0.0
2018-May-14 01:59N 33°57' E 130°56'0 0.0
2018-May-14 01:30N 33°57' E 130°56'0 0.0
2018-May-14 01:00N 33°57' E 130°56'0 0.0
2018-May-14 00:29N 33°57' E 130°56'0 0.0
2018-May-14 00:00N 33°57' E 130°56'0 0.0
2018-May-13 23:27N 33°57' E 130°56'0 0.0
2018-May-13 23:00N 33°57' E 130°56'0 0.0
2018-May-13 22:30N 33°57' E 130°56'0 0.0
2018-May-13 22:00N 33°57' E 130°56'0 0.0
2018-May-13 21:30N 33°57' E 130°56'0 0.0
2018-May-13 21:00N 33°57' E 130°56'0 0.0
2018-May-13 20:30N 33°57' E 130°56'0 0.0
2018-May-13 20:00N 33°57' E 130°56'0 0.0
2018-May-13 19:30N 33°57' E 130°56'0 0.0
2018-May-13 19:00N 33°57' E 130°56'0 0.0
2018-May-13 18:30N 33°57' E 130°56'0 0.0
2018-May-13 18:00N 33°57' E 130°56'0 0.0
2018-May-13 17:30N 33°57' E 130°56'0 0.0
2018-May-13 17:00N 33°57' E 130°56'0 0.0
2018-May-13 16:30N 33°57' E 130°56'0 0.0
2018-May-13 16:00N 33°57' E 130°56'0 0.0
2018-May-13 15:30N 33°57' E 130°56'0 0.0
2018-May-13 15:00N 33°57' E 130°56'0 0.0
2018-May-13 14:28N 33°57' E 130°56'0 0.0
2018-May-13 13:58N 33°57' E 130°56'0 0.0
2018-May-13 13:30N 33°57' E 130°56'0 0.0
2018-May-13 13:00N 33°57' E 130°56'0 0.0
2018-May-13 12:30N 33°57' E 130°56'0 0.0
2018-May-13 12:00N 33°57' E 130°56'0 0.0
2018-May-13 11:30N 33°57' E 130°56'0 0.0
2018-May-13 11:00N 33°57' E 130°56'0 0.0
2018-May-13 10:30N 33°57' E 130°56'0 0.0
2018-May-13 10:00N 33°57' E 130°56'0 0.0
2018-May-13 09:30N 33°57' E 130°56'0 0.0
2018-May-13 09:00N 33°57' E 130°56'0 0.0
2018-May-13 08:30N 33°57' E 130°56'0 0.0
2018-May-13 08:00N 33°57' E 130°56'0 0.0
2018-May-13 07:30N 33°57' E 130°56'0 0.0
2018-May-13 07:00N 33°57' E 130°56'0 0.0
2018-May-13 06:30N 33°57' E 130°56'0 0.0
2018-May-13 06:00N 33°57' E 130°56'0 0.0
2018-May-13 05:30N 33°57' E 130°56'0 0.0
2018-May-13 05:00N 33°57' E 130°56'0 0.0
2018-May-13 04:30N 33°57' E 130°56'0 0.0
2018-May-13 04:00N 33°57' E 130°56'0 0.0
2018-May-13 03:30N 33°57' E 130°56'0 0.0
2018-May-13 03:00N 33°57' E 130°56'0 0.0
2018-May-13 02:30N 33°57' E 130°56'0 0.0
2018-May-13 02:00N 33°57' E 130°56'0 0.0
2018-May-13 01:30N 33°57' E 130°56'0 0.0
2018-May-13 00:59N 33°57' E 130°56'0 0.0
2018-May-13 00:28N 33°57' E 130°56'0 0.0
2018-May-12 23:56N 33°57' E 130°56'0 0.0
2018-May-12 23:29N 33°57' E 130°56'0 0.0
2018-May-12 23:01N 33°57' E 130°56'0 0.0
2018-May-12 22:28N 33°57' E 130°56'0 0.0
2018-May-12 21:59N 33°57' E 130°56'0 0.0
2018-May-12 21:29N 33°57' E 130°56'0 0.0
2018-May-12 20:59N 33°57' E 130°56'0 0.0
2018-May-12 20:29N 33°57' E 130°56'0 0.0
2018-May-12 19:59N 33°57' E 130°56'0 0.0
2018-May-12 19:29N 33°57' E 130°56'0 0.0
2018-May-12 18:59N 33°57' E 130°56'0 0.0
2018-May-12 18:29N 33°57' E 130°56'0 0.0
2018-May-12 17:59N 33°57' E 130°56'0 0.0
2018-May-12 17:29N 33°57' E 130°56'0 0.0
2018-May-12 16:59N 33°57' E 130°56'0 0.0
2018-May-12 16:30N 33°57' E 130°56'0 0.0
2018-May-12 15:59N 33°57' E 130°56'0 0.0
2018-May-12 15:28N 33°57' E 130°56'0 0.0
2018-May-12 14:55N 33°57' E 130°56'0 0.0
2018-May-12 14:25N 33°57' E 130°56'0 0.0
2018-May-12 13:58N 33°57' E 130°56'0 0.0
2018-May-12 13:28N 33°57' E 130°56'0 0.0
2018-May-12 12:55N 33°57' E 130°56'0 0.0
2018-May-12 12:28N 33°57' E 130°56'0 0.0
2018-May-12 11:58N 33°57' E 130°56'0 0.0
2018-May-12 11:25N 33°57' E 130°56'0 0.0
2018-May-12 10:58N 33°57' E 130°56'0 0.0
2018-May-12 10:28N 33°57' E 130°56'0 0.0
2018-May-12 09:55N 33°57' E 130°56'0 0.0
2018-May-12 09:28N 33°57' E 130°56'0 0.0
2018-May-12 08:58N 33°57' E 130°56'0 0.0
2018-May-12 08:30N 33°57' E 130°56'0 0.0
2018-May-12 07:59N 33°57' E 130°56'0 0.0
2018-May-12 07:29N 33°57' E 130°56'0 0.0
2018-May-12 06:59N 33°57' E 130°56'0 0.0
2018-May-12 06:29N 33°57' E 130°56'0 0.0
2018-May-12 05:59N 33°57' E 130°56'0 0.0
2018-May-12 05:26N 33°57' E 130°56'0 0.0
2018-May-12 04:59N 33°57' E 130°56'0 0.0
2018-May-12 04:29N 33°57' E 130°56'0 0.0
2018-May-12 03:59N 33°57' E 130°56'0 0.0
2018-May-12 03:26N 33°57' E 130°56'0 0.0
2018-May-12 02:59N 33°57' E 130°56'0 0.0
2018-May-12 02:26N 33°57' E 130°56'0 0.0
2018-May-12 01:59N 33°57' E 130°56'0 0.0
2018-May-12 01:29N 33°57' E 130°56'0 0.0
2018-May-12 00:56N 33°57' E 130°56'0 0.0
2018-May-12 00:29N 33°57' E 130°56'0 0.0
2018-May-12 00:00N 33°57' E 130°56'0 0.0
2018-May-11 23:29N 33°57' E 130°56'0 0.0
2018-May-11 22:59N 33°57' E 130°56'0 0.0
2018-May-11 22:29N 33°57' E 130°56'0 0.0
2018-May-11 21:56N 33°57' E 130°56'0 0.0
2018-May-11 21:30N 33°57' E 130°56'0 0.0
2018-May-11 20:59N 33°57' E 130°56'0 0.0
2018-May-11 20:27N 33°57' E 130°56'0 0.0
2018-May-11 19:56N 33°57' E 130°56'0 0.0
2018-May-11 19:30N 33°57' E 130°56'0 0.0
2018-May-11 19:00N 33°57' E 130°56'0 0.0
2018-May-11 18:26N 33°57' E 130°56'0 0.0
2018-May-11 17:59N 33°57' E 130°56'0 0.0
2018-May-11 17:26N 33°57' E 130°56'0 0.0
2018-May-11 16:59N 33°57' E 130°56'0 0.0
2018-May-11 16:29N 33°57' E 130°56'0 0.0
2018-May-11 15:59N 33°57' E 130°56'0 0.0
2018-May-11 15:29N 33°57' E 130°56'0 0.0
2018-May-11 14:59N 33°57' E 130°56'0 0.0
2018-May-11 14:29N 33°57' E 130°56'0 0.0
2018-May-11 13:59N 33°57' E 130°56'0 0.0
2018-May-11 13:29N 33°57' E 130°56'0 0.0
2018-May-11 12:59N 33°57' E 130°56'0 0.0
2018-May-11 12:29N 33°57' E 130°56'0 0.0
2018-May-11 11:59N 33°57' E 130°56'0 0.0
2018-May-11 11:29N 33°57' E 130°56'0 0.0
2018-May-11 10:59N 33°57' E 130°56'0 0.0
2018-May-11 10:29N 33°57' E 130°56'0 0.0
2018-May-11 09:59N 33°57' E 130°56'0 0.0
2018-May-11 09:29N 33°57' E 130°56'0 0.0
2018-May-11 09:00N 33°57' E 130°56'0 0.0
2018-May-11 08:30N 33°57' E 130°56'0 0.0
2018-May-11 08:00N 33°57' E 130°56'0 0.0
2018-May-11 07:30N 33°57' E 130°56'0 0.0
2018-May-11 06:57N 33°57' E 130°56'0 0.0
2018-May-11 06:30N 33°57' E 130°56'0 0.0
2018-May-11 05:54N 33°57' E 130°56'0 0.0
2018-May-11 05:30N 33°57' E 130°56'0 0.0
2018-May-11 05:00N 33°57' E 130°56'0 0.0
2018-May-11 04:30N 33°57' E 130°56'0 0.0
2018-May-11 03:57N 33°57' E 130°56'0 0.0
2018-May-11 03:30N 33°57' E 130°56'0 0.0
2018-May-11 03:00N 33°57' E 130°56'0 0.0
2018-May-11 02:30N 33°57' E 130°56'0 0.0
2018-May-11 02:00N 33°57' E 130°56'0 0.0
2018-May-11 01:27N 33°57' E 130°56'0 0.0
2018-May-11 00:59N 33°57' E 130°56'0 0.0
2018-May-11 00:29N 33°57' E 130°56'0 0.0
2018-May-10 23:59N 33°57' E 130°56'0 0.0
2018-May-10 23:29N 33°57' E 130°56'0 0.0
2018-May-10 22:59N 33°57' E 130°56'0 0.0
2018-May-10 22:29N 33°57' E 130°56'0 0.0
2018-May-10 21:59N 33°57' E 130°56'0 0.0
2018-May-10 21:29N 33°57' E 130°56'0 0.0
2018-May-10 20:59N 33°57' E 130°56'0 0.0
2018-May-10 20:29N 33°57' E 130°56'0 0.0
2018-May-10 19:59N 33°57' E 130°56'0 0.0
2018-May-10 19:29N 33°57' E 130°56'0 0.0
2018-May-10 18:59N 33°57' E 130°56'0 0.0
2018-May-10 18:29N 33°57' E 130°56'0 0.0
2018-May-10 17:59N 33°57' E 130°56'0 0.0
2018-May-10 17:29N 33°57' E 130°56'0 0.0
2018-May-10 16:59N 33°57' E 130°56'0 0.0
2018-May-10 16:23N 33°57' E 130°56'0 0.0
2018-May-10 15:59N 33°57' E 130°56'0 0.0
2018-May-10 15:29N 33°57' E 130°56'0 0.0
2018-May-10 14:59N 33°57' E 130°56'0 0.0
2018-May-10 14:29N 33°57' E 130°56'0 0.0
2018-May-10 13:59N 33°57' E 130°56'0 0.0
2018-May-10 13:25N 33°57' E 130°56'0 0.0
2018-May-10 12:58N 33°57' E 130°56'0 0.0
2018-May-10 12:25N 33°57' E 130°56'0 0.0
2018-May-10 11:58N 33°57' E 130°56'0 0.0
2018-May-10 11:30N 33°57' E 130°56'0 0.0
2018-May-10 10:57N 33°57' E 130°56'0 0.0
2018-May-10 10:30N 33°57' E 130°56'0 0.0
2018-May-10 10:00N 33°57' E 130°56'0 0.0
2018-May-10 09:30N 33°57' E 130°56'0 0.0
2018-May-10 09:00N 33°57' E 130°56'0 0.0
2018-May-10 08:30N 33°57' E 130°56'0 0.0
2018-May-10 08:00N 33°57' E 130°56'0 0.0
2018-May-10 07:27N 33°57' E 130°56'0 0.0
2018-May-10 07:00N 33°57' E 130°56'0 0.0
2018-May-10 06:30N 33°57' E 130°56'0 0.0
2018-May-10 06:00N 33°57' E 130°56'0 0.0
2018-May-10 05:30N 33°57' E 130°56'0 0.0
2018-May-10 05:00N 33°57' E 130°56'0 0.0
2018-May-10 04:30N 33°57' E 130°56'0 0.0
2018-May-10 04:00N 33°57' E 130°56'0 0.0
2018-May-10 03:30N 33°57' E 130°56'0 0.0
2018-May-10 03:00N 33°57' E 130°56'0 0.0
2018-May-10 02:30N 33°57' E 130°56'0 0.0
2018-May-10 02:00N 33°57' E 130°56'0 0.0
2018-May-10 01:30N 33°57' E 130°56'0 0.0
2018-May-10 01:00N 33°57' E 130°56'0 0.0
2018-May-10 00:30N 33°57' E 130°56'0 0.0
2018-May-10 00:00N 33°57' E 130°56'0 0.0
2018-May-09 23:27N 33°57' E 130°56'0 0.0
2018-May-09 23:00N 33°57' E 130°56'0 0.0
2018-May-09 22:29N 33°57' E 130°56'0 0.0
2018-May-09 21:59N 33°57' E 130°56'0 0.0
2018-May-09 21:29N 33°57' E 130°56'0 0.0
2018-May-09 20:59N 33°57' E 130°56'0 0.0
2018-May-09 20:30N 33°57' E 130°56'0 0.0
2018-May-09 19:58N 33°57' E 130°56'0 0.0
2018-May-09 19:30N 33°57' E 130°56'0 0.0
2018-May-09 19:00N 33°57' E 130°56'0 0.0
2018-May-09 18:30N 33°57' E 130°56'0 0.0
2018-May-09 18:00N 33°57' E 130°56'0 0.0
2018-May-09 17:27N 33°57' E 130°56'0 0.0
2018-May-09 16:57N 33°57' E 130°56'0 0.0
2018-May-09 16:30N 33°57' E 130°56'0 0.0
2018-May-09 16:00N 33°57' E 130°56'0 0.0
2018-May-09 15:30N 33°57' E 130°56'0 0.0
2018-May-09 15:00N 33°57' E 130°56'0 0.0
2018-May-09 14:30N 33°57' E 130°56'0 0.0
2018-May-09 13:59N 33°57' E 130°56'0 0.0
2018-May-09 13:29N 33°57' E 130°56'0 0.0
2018-May-09 12:59N 33°57' E 130°56'0 0.0
2018-May-09 12:26N 33°57' E 130°56'0 0.0
2018-May-09 12:00N 33°57' E 130°56'0 0.0
2018-May-09 11:30N 33°57' E 130°56'0 0.0
2018-May-09 11:00N 33°57' E 130°56'0 0.0
2018-May-09 10:30N 33°57' E 130°56'0 0.0
2018-May-09 10:00N 33°57' E 130°56'0 0.0
2018-May-09 09:30N 33°57' E 130°56'0 0.0
2018-May-09 09:00N 33°57' E 130°56'0 0.0
2018-May-09 08:30N 33°57' E 130°56'0 0.0
2018-May-09 08:00N 33°57' E 130°56'0 0.0
2018-May-09 07:30N 33°57' E 130°56'0 0.0
2018-May-09 07:00N 33°57' E 130°56'0 0.0
2018-May-09 06:30N 33°57' E 130°56'0 0.0
2018-May-09 05:59N 33°57' E 130°56'0 0.0
2018-May-09 05:29N 33°57' E 130°56'0 0.0
2018-May-09 04:59N 33°57' E 130°56'0 0.0
2018-May-09 04:30N 33°57' E 130°56'0 0.0
2018-May-09 04:00N 33°57' E 130°56'0 0.0
2018-May-09 03:30N 33°57' E 130°56'0 0.0
2018-May-09 02:58N 33°57' E 130°56'0 0.0
2018-May-09 02:28N 33°57' E 130°56'0 0.0
2018-May-09 02:00N 33°57' E 130°56'  
Track history (hours):
 
Tides and Currents Weather Stations Pressure Air Temp Water Temp Dewpoint Dewpoint Depression Visibility Wind Speed Wind Dir Waves Ship Positions

Oceanographic research ship Oshoro Maru (Japan)

Detailed information on ship capabilities available from University of Delaware's Ocean Information Center.

Last reported at 2018-May-19 01:32 UTC. Time now 2018-May-20 15:31 UTC.
Position N 33°43' E 135°10'.

Length 73 m; beam 13 m; draft 5 m.

Type: Other ship. MMSI: 431477000.

Date/timePositionNaut miles runAvg speedWind from/ knotsBaromVisibWave heightAir tempDewpointWater temp
2018-May-19 01:32N 33°43' E 135°10'211.9
2018-May-19 01:24N 33°44' E 135°09'511.6
2018-May-19 01:00N 33°47' E 135°05'611.8
2018-May-19 00:30N 33°52' E 135°01'611.2
2018-May-19 00:00N 33°57' E 134°59'611.7
2018-May-18 23:30N 34°03' E 134°59'612.0
2018-May-18 23:00N 34°09' E 134°59'612.7
2018-May-18 22:30N 34°16' E 134°59'611.0
2018-May-18 22:00N 34°21' E 134°59'611.7
2018-May-18 21:30N 34°27' E 135°01'611.9
2018-May-18 21:00N 34°33' E 135°02'510.1
2018-May-18 20:30N 34°37' E 134°59'713.4
2018-May-18 20:00N 34°34' E 134°52'612.4
2018-May-18 19:30N 34°32' E 134°45'611.9
2018-May-18 19:00N 34°29' E 134°38'611.9
2018-May-18 18:30N 34°27' E 134°32'612.4
2018-May-18 18:00N 34°25' E 134°25'  
2018-May-15 08:19N 33°33' E 129°34'411.9
2018-May-15 07:59N 33°33' E 129°38'5 7.3
2018-May-15 07:21N 33°34' E 129°44'0 0.3
2018-May-15 07:00N 33°34' E 129°44'0 0.3
2018-May-15 06:26N 33°34' E 129°44'3 5.7
2018-May-15 05:55N 33°37' E 129°45'0 0.2
2018-May-15 05:29N 33°37' E 129°45'0 0.1
2018-May-15 04:53N 33°37' E 129°45'1 3.0
2018-May-15 04:29N 33°37' E 129°47'3 5.5
2018-May-15 04:00N 33°38' E 129°50'3 5.2
2018-May-15 03:31N 33°37' E 129°53'0 0.1
2018-May-15 03:00N 33°37' E 129°53'0 0.2
2018-May-15 02:30N 33°37' E 129°53'0 0.0
2018-May-15 02:00N 33°37' E 129°53'0 0.1
2018-May-15 01:29N 33°37' E 129°53'0 0.2
2018-May-15 01:00N 33°37' E 129°53'4 5.2
2018-May-15 00:15N 33°36' E 129°57'2 6.0
2018-May-14 23:59N 33°35' E 129°59'0 0.2
2018-May-14 23:30N 33°35' E 129°59'0 0.3
2018-May-14 23:00N 33°35' E 129°59'0 0.8
2018-May-14 22:30N 33°36' E 129°59'2 3.7
2018-May-14 21:59N 33°37' E 129°60'1 2.0
2018-May-14 21:30N 33°38' E 129°60'1 1.1
2018-May-14 21:01N 33°39' E 129°60'1 2.4
2018-May-14 20:30N 33°40' E 130°00'2 3.3
2018-May-14 20:01N 33°42' E 130°01'2 3.6
2018-May-14 19:30N 33°43' E 130°03'2 4.0
2018-May-14 19:00N 33°44' E 130°04'2 3.8
2018-May-14 18:30N 33°45' E 130°06'2 3.7
2018-May-14 18:01N 33°47' E 130°08'2 3.7
2018-May-14 17:31N 33°48' E 130°09'2 4.0
2018-May-14 17:01N 33°49' E 130°11'2 3.9
2018-May-14 16:31N 33°50' E 130°13'2 3.7
2018-May-14 16:00N 33°51' E 130°15'2 3.8
2018-May-14 15:30N 33°53' E 130°17'2 3.9
2018-May-14 15:00N 33°54' E 130°19'2 3.6
2018-May-14 14:30N 33°55' E 130°20'2 3.5
2018-May-14 14:00N 33°56' E 130°22'2 3.8
2018-May-14 13:30N 33°57' E 130°24'2 4.1
2018-May-14 13:00N 33°57' E 130°26'2 4.5
2018-May-14 12:30N 33°58' E 130°29'2 4.8
2018-May-14 12:00N 33°59' E 130°32'2 5.0
2018-May-14 11:30N 33°60' E 130°34'3 5.1
2018-May-14 11:00N 34°01' E 130°37'3 5.2
2018-May-14 10:30N 34°02' E 130°40'3 5.1
2018-May-14 10:00N 34°03' E 130°43'3 6.2
2018-May-14 09:30N 34°03' E 130°47'510.5
2018-May-14 09:00N 34°00' E 130°52'5 9.4
2018-May-14 08:30N 33°56' E 130°53'2 4.5
2018-May-14 08:00N 33°57' E 130°56'0 0.3
2018-May-14 07:30N 33°57' E 130°56'0 0.0
2018-May-14 07:00N 33°57' E 130°56'0 0.0
2018-May-14 06:30N 33°57' E 130°56'0 0.0
2018-May-14 06:00N 33°57' E 130°56'0 0.0
2018-May-14 05:26N 33°57' E 130°56'0 0.0
2018-May-14 04:58N 33°57' E 130°56'0 0.0
2018-May-14 04:28N 33°57' E 130°56'0 0.0
2018-May-14 03:58N 33°57' E 130°56'0 0.0
2018-May-14 03:28N 33°57' E 130°56'0 0.0
2018-May-14 02:58N 33°57' E 130°56'0 0.0
2018-May-14 02:22N 33°57' E 130°56'0 0.0
2018-May-14 01:59N 33°57' E 130°56'0 0.0
2018-May-14 01:30N 33°57' E 130°56'0 0.0
2018-May-14 01:00N 33°57' E 130°56'0 0.0
2018-May-14 00:29N 33°57' E 130°56'0 0.0
2018-May-14 00:00N 33°57' E 130°56'0 0.0
2018-May-13 23:27N 33°57' E 130°56'0 0.0
2018-May-13 23:00N 33°57' E 130°56'0 0.0
2018-May-13 22:30N 33°57' E 130°56'0 0.0
2018-May-13 22:00N 33°57' E 130°56'0 0.0
2018-May-13 21:30N 33°57' E 130°56'0 0.0
2018-May-13 21:00N 33°57' E 130°56'0 0.0
2018-May-13 20:30N 33°57' E 130°56'0 0.0
2018-May-13 20:00N 33°57' E 130°56'0 0.0
2018-May-13 19:30N 33°57' E 130°56'0 0.0
2018-May-13 19:00N 33°57' E 130°56'0 0.0
2018-May-13 18:30N 33°57' E 130°56'0 0.0
2018-May-13 18:00N 33°57' E 130°56'0 0.0
2018-May-13 17:30N 33°57' E 130°56'0 0.0
2018-May-13 17:00N 33°57' E 130°56'0 0.0
2018-May-13 16:30N 33°57' E 130°56'0 0.0
2018-May-13 16:00N 33°57' E 130°56'0 0.0
2018-May-13 15:30N 33°57' E 130°56'0 0.0
2018-May-13 15:00N 33°57' E 130°56'0 0.0
2018-May-13 14:28N 33°57' E 130°56'0 0.0
2018-May-13 13:58N 33°57' E 130°56'0 0.0
2018-May-13 13:30N 33°57' E 130°56'0 0.0
2018-May-13 13:00N 33°57' E 130°56'0 0.0
2018-May-13 12:30N 33°57' E 130°56'0 0.0
2018-May-13 12:00N 33°57' E 130°56'0 0.0
2018-May-13 11:30N 33°57' E 130°56'0 0.0
2018-May-13 11:00N 33°57' E 130°56'0 0.0
2018-May-13 10:30N 33°57' E 130°56'0 0.0
2018-May-13 10:00N 33°57' E 130°56'0 0.0
2018-May-13 09:30N 33°57' E 130°56'0 0.0
2018-May-13 09:00N 33°57' E 130°56'0 0.0
2018-May-13 08:30N 33°57' E 130°56'0 0.0
2018-May-13 08:00N 33°57' E 130°56'0 0.0
2018-May-13 07:30N 33°57' E 130°56'0 0.0
2018-May-13 07:00N 33°57' E 130°56'0 0.0
2018-May-13 06:30N 33°57' E 130°56'0 0.0
2018-May-13 06:00N 33°57' E 130°56'0 0.0
2018-May-13 05:30N 33°57' E 130°56'0 0.0
2018-May-13 05:00N 33°57' E 130°56'0 0.0
2018-May-13 04:30N 33°57' E 130°56'0 0.0
2018-May-13 04:00N 33°57' E 130°56'0 0.0
2018-May-13 03:30N 33°57' E 130°56'0 0.0
2018-May-13 03:00N 33°57' E 130°56'0 0.0
2018-May-13 02:30N 33°57' E 130°56'0 0.0
2018-May-13 02:00N 33°57' E 130°56'0 0.0
2018-May-13 01:30N 33°57' E 130°56'0 0.0
2018-May-13 00:59N 33°57' E 130°56'0 0.0
2018-May-13 00:28N 33°57' E 130°56'0 0.0
2018-May-12 23:56N 33°57' E 130°56'0 0.0
2018-May-12 23:29N 33°57' E 130°56'0 0.0
2018-May-12 23:01N 33°57' E 130°56'0 0.0
2018-May-12 22:28N 33°57' E 130°56'0 0.0
2018-May-12 21:59N 33°57' E 130°56'0 0.0
2018-May-12 21:29N 33°57' E 130°56'0 0.0
2018-May-12 20:59N 33°57' E 130°56'0 0.0
2018-May-12 20:29N 33°57' E 130°56'0 0.0
2018-May-12 19:59N 33°57' E 130°56'0 0.0
2018-May-12 19:29N 33°57' E 130°56'0 0.0
2018-May-12 18:59N 33°57' E 130°56'0 0.0
2018-May-12 18:29N 33°57' E 130°56'0 0.0
2018-May-12 17:59N 33°57' E 130°56'0 0.0
2018-May-12 17:29N 33°57' E 130°56'0 0.0
2018-May-12 16:59N 33°57' E 130°56'0 0.0
2018-May-12 16:30N 33°57' E 130°56'0 0.0
2018-May-12 15:59N 33°57' E 130°56'0 0.0
2018-May-12 15:28N 33°57' E 130°56'0 0.0
2018-May-12 14:55N 33°57' E 130°56'0 0.0
2018-May-12 14:25N 33°57' E 130°56'0 0.0
2018-May-12 13:58N 33°57' E 130°56'0 0.0
2018-May-12 13:28N 33°57' E 130°56'0 0.0
2018-May-12 12:55N 33°57' E 130°56'0 0.0
2018-May-12 12:28N 33°57' E 130°56'0 0.0
2018-May-12 11:58N 33°57' E 130°56'0 0.0
2018-May-12 11:25N 33°57' E 130°56'0 0.0
2018-May-12 10:58N 33°57' E 130°56'0 0.0
2018-May-12 10:28N 33°57' E 130°56'0 0.0
2018-May-12 09:55N 33°57' E 130°56'0 0.0
2018-May-12 09:28N 33°57' E 130°56'0 0.0
2018-May-12 08:58N 33°57' E 130°56'0 0.0
2018-May-12 08:30N 33°57' E 130°56'0 0.0
2018-May-12 07:59N 33°57' E 130°56'0 0.0
2018-May-12 07:29N 33°57' E 130°56'0 0.0
2018-May-12 06:59N 33°57' E 130°56'0 0.0
2018-May-12 06:29N 33°57' E 130°56'0 0.0
2018-May-12 05:59N 33°57' E 130°56'0 0.0
2018-May-12 05:26N 33°57' E 130°56'0 0.0
2018-May-12 04:59N 33°57' E 130°56'0 0.0
2018-May-12 04:29N 33°57' E 130°56'0 0.0
2018-May-12 03:59N 33°57' E 130°56'0 0.0
2018-May-12 03:26N 33°57' E 130°56'0 0.0
2018-May-12 02:59N 33°57' E 130°56'0 0.0
2018-May-12 02:26N 33°57' E 130°56'0 0.0
2018-May-12 01:59N 33°57' E 130°56'0 0.0
2018-May-12 01:29N 33°57' E 130°56'0 0.0
2018-May-12 00:56N 33°57' E 130°56'0 0.0
2018-May-12 00:29N 33°57' E 130°56'0 0.0
2018-May-12 00:00N 33°57' E 130°56'0 0.0
2018-May-11 23:29N 33°57' E 130°56'0 0.0
2018-May-11 22:59N 33°57' E 130°56'0 0.0
2018-May-11 22:29N 33°57' E 130°56'0 0.0
2018-May-11 21:56N 33°57' E 130°56'0 0.0
2018-May-11 21:30N 33°57' E 130°56'0 0.0
2018-May-11 20:59N 33°57' E 130°56'0 0.0
2018-May-11 20:27N 33°57' E 130°56'0 0.0
2018-May-11 19:56N 33°57' E 130°56'0 0.0
2018-May-11 19:30N 33°57' E 130°56'0 0.0
2018-May-11 19:00N 33°57' E 130°56'0 0.0
2018-May-11 18:26N 33°57' E 130°56'0 0.0
2018-May-11 17:59N 33°57' E 130°56'0 0.0
2018-May-11 17:26N 33°57' E 130°56'0 0.0
2018-May-11 16:59N 33°57' E 130°56'0 0.0
2018-May-11 16:29N 33°57' E 130°56'0 0.0
2018-May-11 15:59N 33°57' E 130°56'0 0.0
2018-May-11 15:29N 33°57' E 130°56'0 0.0
2018-May-11 14:59N 33°57' E 130°56'0 0.0
2018-May-11 14:29N 33°57' E 130°56'0 0.0
2018-May-11 13:59N 33°57' E 130°56'0 0.0
2018-May-11 13:29N 33°57' E 130°56'0 0.0
2018-May-11 12:59N 33°57' E 130°56'0 0.0
2018-May-11 12:29N 33°57' E 130°56'0 0.0
2018-May-11 11:59N 33°57' E 130°56'0 0.0
2018-May-11 11:29N 33°57' E 130°56'0 0.0
2018-May-11 10:59N 33°57' E 130°56'0 0.0
2018-May-11 10:29N 33°57' E 130°56'0 0.0
2018-May-11 09:59N 33°57' E 130°56'0 0.0
2018-May-11 09:29N 33°57' E 130°56'0 0.0
2018-May-11 09:00N 33°57' E 130°56'0 0.0
2018-May-11 08:30N 33°57' E 130°56'0 0.0
2018-May-11 08:00N 33°57' E 130°56'0 0.0
2018-May-11 07:30N 33°57' E 130°56'0 0.0
2018-May-11 06:57N 33°57' E 130°56'0 0.0
2018-May-11 06:30N 33°57' E 130°56'0 0.0
2018-May-11 05:54N 33°57' E 130°56'0 0.0
2018-May-11 05:30N 33°57' E 130°56'0 0.0
2018-May-11 05:00N 33°57' E 130°56'0 0.0
2018-May-11 04:30N 33°57' E 130°56'0 0.0
2018-May-11 03:57N 33°57' E 130°56'0 0.0
2018-May-11 03:30N 33°57' E 130°56'0 0.0
2018-May-11 03:00N 33°57' E 130°56'0 0.0
2018-May-11 02:30N 33°57' E 130°56'0 0.0
2018-May-11 02:00N 33°57' E 130°56'0 0.0
2018-May-11 01:27N 33°57' E 130°56'0 0.0
2018-May-11 00:59N 33°57' E 130°56'0 0.0
2018-May-11 00:29N 33°57' E 130°56'0 0.0
2018-May-10 23:59N 33°57' E 130°56'0 0.0
2018-May-10 23:29N 33°57' E 130°56'0 0.0
2018-May-10 22:59N 33°57' E 130°56'0 0.0
2018-May-10 22:29N 33°57' E 130°56'0 0.0
2018-May-10 21:59N 33°57' E 130°56'0 0.0
2018-May-10 21:29N 33°57' E 130°56'0 0.0
2018-May-10 20:59N 33°57' E 130°56'0 0.0
2018-May-10 20:29N 33°57' E 130°56'0 0.0
2018-May-10 19:59N 33°57' E 130°56'0 0.0
2018-May-10 19:29N 33°57' E 130°56'0 0.0
2018-May-10 18:59N 33°57' E 130°56'0 0.0
2018-May-10 18:29N 33°57' E 130°56'0 0.0
2018-May-10 17:59N 33°57' E 130°56'0 0.0
2018-May-10 17:29N 33°57' E 130°56'0 0.0
2018-May-10 16:59N 33°57' E 130°56'0 0.0
2018-May-10 16:23N 33°57' E 130°56'0 0.0
2018-May-10 15:59N 33°57' E 130°56'0 0.0
2018-May-10 15:29N 33°57' E 130°56'0 0.0
2018-May-10 14:59N 33°57' E 130°56'0 0.0
2018-May-10 14:29N 33°57' E 130°56'0 0.0
2018-May-10 13:59N 33°57' E 130°56'0 0.0
2018-May-10 13:25N 33°57' E 130°56'0 0.0
2018-May-10 12:58N 33°57' E 130°56'0 0.0
2018-May-10 12:25N 33°57' E 130°56'0 0.0
2018-May-10 11:58N 33°57' E 130°56'0 0.0
2018-May-10 11:30N 33°57' E 130°56'0 0.0
2018-May-10 10:57N 33°57' E 130°56'0 0.0
2018-May-10 10:30N 33°57' E 130°56'0 0.0
2018-May-10 10:00N 33°57' E 130°56'0 0.0
2018-May-10 09:30N 33°57' E 130°56'0 0.0
2018-May-10 09:00N 33°57' E 130°56'0 0.0
2018-May-10 08:30N 33°57' E 130°56'0 0.0
2018-May-10 08:00N 33°57' E 130°56'0 0.0
2018-May-10 07:27N 33°57' E 130°56'0 0.0
2018-May-10 07:00N 33°57' E 130°56'0 0.0
2018-May-10 06:30N 33°57' E 130°56'0 0.0
2018-May-10 06:00N 33°57' E 130°56'0 0.0
2018-May-10 05:30N 33°57' E 130°56'0 0.0
2018-May-10 05:00N 33°57' E 130°56'0 0.0
2018-May-10 04:30N 33°57' E 130°56'0 0.0
2018-May-10 04:00N 33°57' E 130°56'0 0.0
2018-May-10 03:30N 33°57' E 130°56'0 0.0
2018-May-10 03:00N 33°57' E 130°56'0 0.0
2018-May-10 02:30N 33°57' E 130°56'0 0.0
2018-May-10 02:00N 33°57' E 130°56'0 0.0
2018-May-10 01:30N 33°57' E 130°56'0 0.0
2018-May-10 01:00N 33°57' E 130°56'0 0.0
2018-May-10 00:30N 33°57' E 130°56'0 0.0
2018-May-10 00:00N 33°57' E 130°56'0 0.0
2018-May-09 23:27N 33°57' E 130°56'0 0.0
2018-May-09 23:00N 33°57' E 130°56'0 0.0
2018-May-09 22:29N 33°57' E 130°56'0 0.0
2018-May-09 21:59N 33°57' E 130°56'0 0.0
2018-May-09 21:29N 33°57' E 130°56'0 0.0
2018-May-09 20:59N 33°57' E 130°56'0 0.0
2018-May-09 20:30N 33°57' E 130°56'0 0.0
2018-May-09 19:58N 33°57' E 130°56'0 0.0
2018-May-09 19:30N 33°57' E 130°56'0 0.0
2018-May-09 19:00N 33°57' E 130°56'0 0.0
2018-May-09 18:30N 33°57' E 130°56'0 0.0
2018-May-09 18:00N 33°57' E 130°56'0 0.0
2018-May-09 17:27N 33°57' E 130°56'0 0.0
2018-May-09 16:57N 33°57' E 130°56'0 0.0
2018-May-09 16:30N 33°57' E 130°56'0 0.0
2018-May-09 16:00N 33°57' E 130°56'0 0.0
2018-May-09 15:30N 33°57' E 130°56'0 0.0
2018-May-09 15:00N 33°57' E 130°56'0 0.0
2018-May-09 14:30N 33°57' E 130°56'0 0.0
2018-May-09 13:59N 33°57' E 130°56'0 0.0
2018-May-09 13:29N 33°57' E 130°56'0 0.0
2018-May-09 12:59N 33°57' E 130°56'0 0.0
2018-May-09 12:26N 33°57' E 130°56'0 0.0
2018-May-09 12:00N 33°57' E 130°56'0 0.0
2018-May-09 11:30N 33°57' E 130°56'0 0.0
2018-May-09 11:00N 33°57' E 130°56'0 0.0
2018-May-09 10:30N 33°57' E 130°56'0 0.0
2018-May-09 10:00N 33°57' E 130°56'0 0.0
2018-May-09 09:30N 33°57' E 130°56'0 0.0
2018-May-09 09:00N 33°57' E 130°56'0 0.0
2018-May-09 08:30N 33°57' E 130°56'0 0.0
2018-May-09 08:00N 33°57' E 130°56'0 0.0
2018-May-09 07:30N 33°57' E 130°56'0 0.0
2018-May-09 07:00N 33°57' E 130°56'0 0.0
2018-May-09 06:30N 33°57' E 130°56'0 0.0
2018-May-09 05:59N 33°57' E 130°56'0 0.0
2018-May-09 05:29N 33°57' E 130°56'0 0.0
2018-May-09 04:59N 33°57' E 130°56'0 0.0
2018-May-09 04:30N 33°57' E 130°56'0 0.0
2018-May-09 04:00N 33°57' E 130°56'0 0.0
2018-May-09 03:30N 33°57' E 130°56'0 0.0
2018-May-09 02:58N 33°57' E 130°56'0 0.0
2018-May-09 02:28N 33°57' E 130°56'0 0.0
2018-May-09 02:00N 33°57' E 130°56'  

Dump ship's entire track history